sensor_id;sensor_type;location;lat;lon;timestamp;pressure;altitude;pressure_sealevel;temperature;humidity
48872;BME280;36154;51.674;7.824;2022-11-27T00:01:37;101868.06;;;19.78;52.84
48872;BME280;36154;51.674;7.824;2022-11-27T00:04:03;101868.06;;;19.78;52.56
48872;BME280;36154;51.674;7.824;2022-11-27T00:06:29;101874.09;;;19.79;52.66
48872;BME280;36154;51.674;7.824;2022-11-27T00:08:56;101866.34;;;19.77;52.61
48872;BME280;36154;51.674;7.824;2022-11-27T00:11:23;101859.44;;;19.76;52.51
48872;BME280;36154;51.674;7.824;2022-11-27T00:13:49;101857.72;;;19.75;52.52
48872;BME280;36154;51.674;7.824;2022-11-27T00:16:15;101861.16;;;19.77;52.43
48872;BME280;36154;51.674;7.824;2022-11-27T00:18:41;101861.16;;;19.75;52.50
48872;BME280;36154;51.674;7.824;2022-11-27T00:21:13;101859.44;;;19.76;52.37
48872;BME280;36154;51.674;7.824;2022-11-27T00:23:39;101860.31;;;19.75;52.54
48872;BME280;36154;51.674;7.824;2022-11-27T00:26:05;101850.81;;;19.74;52.53
48872;BME280;36154;51.674;7.824;2022-11-27T00:28:31;101851.69;;;19.73;52.34
48872;BME280;36154;51.674;7.824;2022-11-27T00:30:59;101848.25;;;19.71;52.34
48872;BME280;36154;51.674;7.824;2022-11-27T00:33:24;101841.38;;;19.70;52.50
48872;BME280;36154;51.674;7.824;2022-11-27T00:35:50;101850.00;;;19.70;52.42
48872;BME280;36154;51.674;7.824;2022-11-27T00:38:15;101845.69;;;19.69;52.31
48872;BME280;36154;51.674;7.824;2022-11-27T00:40:40;101843.97;;;19.70;52.51
48872;BME280;36154;51.674;7.824;2022-11-27T00:43:06;101843.09;;;19.69;52.30
48872;BME280;36154;51.674;7.824;2022-11-27T00:45:31;101847.41;;;19.69;52.28
48872;BME280;36154;51.674;7.824;2022-11-27T00:47:57;101846.56;;;19.70;52.35
48872;BME280;36154;51.674;7.824;2022-11-27T00:50:22;101847.41;;;19.69;52.46
48872;BME280;36154;51.674;7.824;2022-11-27T00:52:47;101843.97;;;19.67;52.38
48872;BME280;36154;51.674;7.824;2022-11-27T00:55:13;101842.25;;;19.66;52.34
48872;BME280;36154;51.674;7.824;2022-11-27T00:57:38;101847.44;;;19.66;52.37
48872;BME280;36154;51.674;7.824;2022-11-27T01:00:05;101835.38;;;19.62;52.21
48872;BME280;36154;51.674;7.824;2022-11-27T01:02:31;101831.03;;;19.62;52.39
48872;BME280;36154;51.674;7.824;2022-11-27T01:04:56;101838.81;;;19.64;52.34
48872;BME280;36154;51.674;7.824;2022-11-27T01:07:21;101830.22;;;19.65;52.24
48872;BME280;36154;51.674;7.824;2022-11-27T01:09:46;101825.88;;;19.65;52.33
48872;BME280;36154;51.674;7.824;2022-11-27T01:12:12;101826.75;;;19.63;52.32
48872;BME280;36154;51.674;7.824;2022-11-27T01:14:37;101838.81;;;19.64;52.32
48872;BME280;36154;51.674;7.824;2022-11-27T01:17:03;101828.47;;;19.64;52.22
48872;BME280;36154;51.674;7.824;2022-11-27T01:19:28;101827.63;;;19.63;52.15
48872;BME280;36154;51.674;7.824;2022-11-27T01:21:53;101825.03;;;19.58;52.23
48872;BME280;36154;51.674;7.824;2022-11-27T01:24:19;101826.72;;;19.61;52.18
48872;BME280;36154;51.674;7.824;2022-11-27T01:26:44;101826.75;;;19.60;52.17
48872;BME280;36154;51.674;7.824;2022-11-27T01:29:11;101836.22;;;19.61;52.27
48872;BME280;36154;51.674;7.824;2022-11-27T01:31:36;101836.22;;;19.61;52.22
48872;BME280;36154;51.674;7.824;2022-11-27T01:34:07;101832.78;;;19.58;52.15
48872;BME280;36154;51.674;7.824;2022-11-27T01:36:33;101828.47;;;19.61;52.13
48872;BME280;36154;51.674;7.824;2022-11-27T01:38:59;101824.19;;;19.58;52.16
48872;BME280;36154;51.674;7.824;2022-11-27T01:41:30;101822.44;;;19.60;52.14
48872;BME280;36154;51.674;7.824;2022-11-27T01:48:58;101818.13;;;19.57;52.44
48872;BME280;36154;51.674;7.824;2022-11-27T01:51:25;101810.38;;;19.54;52.19
48872;BME280;36154;51.674;7.824;2022-11-27T01:53:51;101802.63;;;19.54;52.08
48872;BME280;36154;51.674;7.824;2022-11-27T01:56:18;101793.19;;;19.55;51.98
48872;BME280;36154;51.674;7.824;2022-11-27T01:58:44;101800.06;;;19.54;52.15
48872;BME280;36154;51.674;7.824;2022-11-27T02:01:10;101800.03;;;19.56;52.22
48872;BME280;36154;51.674;7.824;2022-11-27T02:03:35;101802.63;;;19.54;52.01
48872;BME280;36154;51.674;7.824;2022-11-27T02:06:01;101799.19;;;19.55;52.08
48872;BME280;36154;51.674;7.824;2022-11-27T02:08:26;101799.19;;;19.55;52.16
48872;BME280;36154;51.674;7.824;2022-11-27T02:11:14;101804.38;;;19.54;52.10
48872;BME280;36154;51.674;7.824;2022-11-27T02:13:56;101795.78;;;19.52;52.05
48872;BME280;36154;51.674;7.824;2022-11-27T02:19:26;101800.94;;;19.52;52.01
48872;BME280;36154;51.674;7.824;2022-11-27T02:22:50;101793.19;;;19.52;52.01
48872;BME280;36154;51.674;7.824;2022-11-27T02:27:56;101785.44;;;19.49;52.10
48872;BME280;36154;51.674;7.824;2022-11-27T02:30:26;101787.19;;;19.48;52.08
48872;BME280;36154;51.674;7.824;2022-11-27T02:32:59;101782.84;;;19.50;51.92
48872;BME280;36154;51.674;7.824;2022-11-27T02:35:39;101772.53;;;19.49;51.82
48872;BME280;36154;51.674;7.824;2022-11-27T02:38:19;101761.34;;;19.48;51.84
48872;BME280;36154;51.674;7.824;2022-11-27T02:41:04;101742.44;;;19.42;51.90
48872;BME280;36154;51.674;7.824;2022-11-27T02:43:40;101747.53;;;19.49;51.99
48872;BME280;36154;51.674;7.824;2022-11-27T02:46:08;101746.69;;;19.47;51.55
48872;BME280;36154;51.674;7.824;2022-11-27T02:48:41;101743.25;;;19.45;51.91
48872;BME280;36154;51.674;7.824;2022-11-27T02:51:10;101743.25;;;19.45;52.08
48872;BME280;36154;51.674;7.824;2022-11-27T02:53:48;101745.84;;;19.47;51.96
48872;BME280;36154;51.674;7.824;2022-11-27T02:56:27;101738.94;;;19.47;52.07
48872;BME280;36154;51.674;7.824;2022-11-27T02:58:56;101723.41;;;19.47;51.83
48872;BME280;36154;51.674;7.824;2022-11-27T03:01:24;101722.56;;;19.47;51.94
48872;BME280;36154;51.674;7.824;2022-11-27T03:03:54;101713.09;;;19.47;51.76
48872;BME280;36154;51.674;7.824;2022-11-27T03:06:28;101701.91;;;19.44;51.86
48872;BME280;36154;51.674;7.824;2022-11-27T03:09:26;101696.72;;;19.47;51.74
48872;BME280;36154;51.674;7.824;2022-11-27T03:11:53;101691.56;;;19.45;51.90
48872;BME280;36154;51.674;7.824;2022-11-27T03:14:19;101701.03;;;19.46;51.92
48872;BME280;36154;51.674;7.824;2022-11-27T03:19:39;101687.25;;;19.44;51.72
48872;BME280;36154;51.674;7.824;2022-11-27T03:22:07;101678.66;;;19.45;51.49
48872;BME280;36154;51.674;7.824;2022-11-27T03:24:34;101676.91;;;19.44;51.71
48872;BME280;36154;51.674;7.824;2022-11-27T03:27:00;101668.31;;;19.42;51.66
48872;BME280;36154;51.674;7.824;2022-11-27T03:29:42;101671.75;;;19.44;51.84
48872;BME280;36154;51.674;7.824;2022-11-27T03:32:08;101664.00;;;19.43;51.65
48872;BME280;36154;51.674;7.824;2022-11-27T03:34:34;101664.00;;;19.43;51.72
48872;BME280;36154;51.674;7.824;2022-11-27T03:37:01;101668.31;;;19.44;51.78
48872;BME280;36154;51.674;7.824;2022-11-27T03:39:28;101661.41;;;19.43;51.66
48872;BME280;36154;51.674;7.824;2022-11-27T03:45:06;101664.00;;;19.43;51.64
48872;BME280;36154;51.674;7.824;2022-11-27T03:52:51;101658.88;;;19.39;51.76
48872;BME280;36154;51.674;7.824;2022-11-27T03:58:22;101671.81;;;19.38;51.65
48872;BME280;36154;51.674;7.824;2022-11-27T04:00:53;101673.50;;;19.39;51.88
48872;BME280;36154;51.674;7.824;2022-11-27T04:03:24;101666.66;;;19.36;51.87
48872;BME280;36154;51.674;7.824;2022-11-27T04:05:50;101664.91;;;19.37;51.72
48872;BME280;36154;51.674;7.824;2022-11-27T04:08:15;101667.50;;;19.38;51.71
48872;BME280;36154;51.674;7.824;2022-11-27T04:10:40;101670.06;;;19.40;51.46
48872;BME280;36154;51.674;7.824;2022-11-27T04:13:06;101666.56;;;19.44;51.73
48872;BME280;36154;51.674;7.824;2022-11-27T04:15:31;101656.22;;;19.47;51.78
48872;BME280;36154;51.674;7.824;2022-11-27T04:17:56;101661.38;;;19.50;51.89
48872;BME280;36154;51.674;7.824;2022-11-27T04:20:21;101656.19;;;19.53;51.85
48872;BME280;36154;51.674;7.824;2022-11-27T04:22:47;101654.44;;;19.55;51.86
48872;BME280;36154;51.674;7.824;2022-11-27T04:25:12;101662.16;;;19.60;51.74
48872;BME280;36154;51.674;7.824;2022-11-27T04:27:37;101659.56;;;19.62;51.78
48872;BME280;36154;51.674;7.824;2022-11-27T04:30:03;101656.09;;;19.66;51.85
48872;BME280;36154;51.674;7.824;2022-11-27T04:32:28;101653.50;;;19.67;51.65
48872;BME280;36154;51.674;7.824;2022-11-27T04:34:54;101649.16;;;19.69;51.84
48872;BME280;36154;51.674;7.824;2022-11-27T04:37:19;101651.72;;;19.74;51.69
48872;BME280;36154;51.674;7.824;2022-11-27T04:39:44;101648.25;;;19.77;51.60
48872;BME280;36154;51.674;7.824;2022-11-27T04:42:09;101654.25;;;19.80;51.76
48872;BME280;36154;51.674;7.824;2022-11-27T04:44:35;101650.78;;;19.83;51.64
48872;BME280;36154;51.674;7.824;2022-11-27T04:47:00;101640.41;;;19.84;51.47
48872;BME280;36154;51.674;7.824;2022-11-27T04:49:26;101646.41;;;19.88;51.38
48872;BME280;36154;51.674;7.824;2022-11-27T04:51:51;101636.94;;;19.88;51.66
48872;BME280;36154;51.674;7.824;2022-11-27T04:54:17;101639.50;;;19.91;51.64
48872;BME280;36154;51.674;7.824;2022-11-27T04:56:42;101628.25;;;19.92;51.26
48872;BME280;36154;51.674;7.824;2022-11-27T04:59:07;101623.91;;;19.98;51.51
48872;BME280;36154;51.674;7.824;2022-11-27T05:01:33;101629.91;;;20.00;51.37
48872;BME280;36154;51.674;7.824;2022-11-27T05:03:58;101615.25;;;20.02;51.57
48872;BME280;36154;51.674;7.824;2022-11-27T05:06:23;101623.84;;;20.04;51.21
48872;BME280;36154;51.674;7.824;2022-11-27T05:08:48;101615.22;;;20.05;51.30
48872;BME280;36154;51.674;7.824;2022-11-27T05:11:15;101613.47;;;20.07;51.31
48872;BME280;36154;51.674;7.824;2022-11-27T05:13:42;101607.38;;;20.09;51.27
48872;BME280;36154;51.674;7.824;2022-11-27T05:16:07;101609.94;;;20.11;51.26
48872;BME280;36154;51.674;7.824;2022-11-27T05:18:33;101600.44;;;20.13;51.16
48872;BME280;36154;51.674;7.824;2022-11-27T05:21:04;101595.25;;;20.13;51.19
48872;BME280;36154;51.674;7.824;2022-11-27T05:23:30;101589.22;;;20.14;51.10
48872;BME280;36154;51.674;7.824;2022-11-27T05:25:55;101586.63;;;20.14;51.19
48872;BME280;36154;51.674;7.824;2022-11-27T05:28:21;101586.59;;;20.17;51.06
48872;BME280;36154;51.674;7.824;2022-11-27T05:30:47;101571.97;;;20.15;50.99
48872;BME280;36154;51.674;7.824;2022-11-27T05:33:13;101577.94;;;20.18;51.12
48872;BME280;36154;51.674;7.824;2022-11-27T05:35:39;101574.50;;;20.19;51.16
48872;BME280;36154;51.674;7.824;2022-11-27T05:38:04;101552.97;;;20.17;51.00
48872;BME280;36154;51.674;7.824;2022-11-27T05:40:30;101550.34;;;20.20;51.26
48872;BME280;36154;51.674;7.824;2022-11-27T05:42:55;101555.53;;;20.20;51.03
48872;BME280;36154;51.674;7.824;2022-11-27T05:45:20;101543.44;;;20.19;50.85
48872;BME280;36154;51.674;7.824;2022-11-27T05:47:46;101543.44;;;20.19;50.84
48872;BME280;36154;51.674;7.824;2022-11-27T05:50:11;101543.44;;;20.19;50.92
48872;BME280;36154;51.674;7.824;2022-11-27T05:52:36;101545.19;;;20.20;50.84
48872;BME280;36154;51.674;7.824;2022-11-27T05:55:02;101558.13;;;20.19;50.50
48872;BME280;36154;51.674;7.824;2022-11-27T05:57:28;101560.72;;;20.17;50.81
48872;BME280;36154;51.674;7.824;2022-11-27T05:59:55;101555.56;;;20.17;50.81
48872;BME280;36154;51.674;7.824;2022-11-27T06:02:20;101547.78;;;20.17;50.67
48872;BME280;36154;51.674;7.824;2022-11-27T06:04:45;101552.13;;;20.17;50.52
48872;BME280;36154;51.674;7.824;2022-11-27T06:07:11;101553.00;;;20.14;50.57
48872;BME280;36154;51.674;7.824;2022-11-27T06:09:37;101547.00;;;20.12;50.75
48872;BME280;36154;51.674;7.824;2022-11-27T06:12:02;101553.03;;;20.11;50.67
48872;BME280;36154;51.674;7.824;2022-11-27T06:14:28;101553.94;;;20.10;50.71
48872;BME280;36154;51.674;7.824;2022-11-27T06:16:55;101550.44;;;20.11;50.38
48872;BME280;36154;51.674;7.824;2022-11-27T06:19:21;101545.31;;;20.08;50.68
48872;BME280;36154;51.674;7.824;2022-11-27T06:21:46;101548.78;;;20.08;50.60
48872;BME280;36154;51.674;7.824;2022-11-27T06:24:11;101535.88;;;20.05;50.40
48872;BME280;36154;51.674;7.824;2022-11-27T06:26:36;101528.13;;;20.02;50.39
48872;BME280;36154;51.674;7.824;2022-11-27T06:29:04;101527.31;;;20.00;50.46
48872;BME280;36154;51.674;7.824;2022-11-27T06:31:30;101536.75;;;20.03;50.36
48872;BME280;36154;51.674;7.824;2022-11-27T06:33:57;101528.16;;;20.01;50.60
48872;BME280;36154;51.674;7.824;2022-11-27T06:36:26;101527.31;;;19.99;50.62
48872;BME280;36154;51.674;7.824;2022-11-27T06:38:51;101531.66;;;19.98;50.47
48872;BME280;36154;51.674;7.824;2022-11-27T06:41:19;101535.09;;;19.97;50.54
48872;BME280;36154;51.674;7.824;2022-11-27T06:43:45;101542.00;;;19.97;50.69
48872;BME280;36154;51.674;7.824;2022-11-27T06:46:12;101535.13;;;19.96;50.55
48872;BME280;36154;51.674;7.824;2022-11-27T06:48:39;101539.47;;;19.92;50.63
48872;BME280;36154;51.674;7.824;2022-11-27T06:51:06;101540.31;;;19.92;50.62
48872;BME280;36154;51.674;7.824;2022-11-27T06:53:34;101528.28;;;19.91;50.55
48872;BME280;36154;51.674;7.824;2022-11-27T06:56:05;101531.75;;;19.89;50.53
48872;BME280;36154;51.674;7.824;2022-11-27T06:58:31;101526.59;;;19.87;50.63
48872;BME280;36154;51.674;7.824;2022-11-27T07:01:02;101535.19;;;19.88;50.51
48872;BME280;36154;51.674;7.824;2022-11-27T07:03:28;101535.22;;;19.86;50.32
48872;BME280;36154;51.674;7.824;2022-11-27T07:05:53;101534.38;;;19.86;50.42
48872;BME280;36154;51.674;7.824;2022-11-27T07:08:19;101518.00;;;19.85;50.21
48872;BME280;36154;51.674;7.824;2022-11-27T07:10:45;101516.25;;;19.86;50.72
48872;BME280;36154;51.674;7.824;2022-11-27T07:13:10;101513.69;;;19.84;50.53
48872;BME280;36154;51.674;7.824;2022-11-27T07:15:35;101510.22;;;19.88;50.80
48872;BME280;36154;51.674;7.824;2022-11-27T07:18:01;101504.13;;;19.92;50.78
48872;BME280;36154;51.674;7.824;2022-11-27T07:20:27;101507.53;;;19.93;50.82
48872;BME280;36154;51.674;7.824;2022-11-27T07:22:52;101506.66;;;19.97;50.99
48872;BME280;36154;51.674;7.824;2022-11-27T07:25:18;101503.19;;;19.98;50.76
48872;BME280;36154;51.674;7.824;2022-11-27T07:27:43;101486.00;;;19.94;50.94
48872;BME280;36154;51.674;7.824;2022-11-27T07:30:09;101498.84;;;20.02;50.90
48872;BME280;36154;51.674;7.824;2022-11-27T07:32:34;101500.53;;;20.03;50.82
48872;BME280;36154;51.674;7.824;2022-11-27T07:35:02;101511.69;;;20.06;50.90
48872;BME280;36154;51.674;7.824;2022-11-27T07:37:31;101501.31;;;20.08;50.92
48872;BME280;36154;51.674;7.824;2022-11-27T07:39:57;101497.88;;;20.09;50.85
48872;BME280;36154;51.674;7.824;2022-11-27T07:42:22;101500.44;;;20.12;50.89
48872;BME280;36154;51.674;7.824;2022-11-27T07:44:47;101491.78;;;20.13;51.03
48872;BME280;36154;51.674;7.824;2022-11-27T07:47:13;101492.66;;;20.12;50.78
48872;BME280;36154;51.674;7.824;2022-11-27T07:49:38;101496.91;;;20.16;50.88
48872;BME280;36154;51.674;7.824;2022-11-27T07:52:04;101489.13;;;20.18;50.69
48872;BME280;36154;51.674;7.824;2022-11-27T07:54:29;101486.56;;;20.16;50.71
48872;BME280;36154;51.674;7.824;2022-11-27T07:56:54;101477.03;;;20.18;50.80
48872;BME280;36154;51.674;7.824;2022-11-27T07:59:20;101476.16;;;20.19;50.70
48872;BME280;36154;51.674;7.824;2022-11-27T08:01:45;101470.16;;;20.19;50.57
48872;BME280;36154;51.674;7.824;2022-11-27T08:04:13;101464.16;;;20.17;50.57
48872;BME280;36154;51.674;7.824;2022-11-27T08:06:38;101464.09;;;20.18;50.65
48872;BME280;36154;51.674;7.824;2022-11-27T08:09:03;101464.09;;;20.18;50.57
48872;BME280;36154;51.674;7.824;2022-11-27T08:11:30;101453.81;;;20.17;50.54
48872;BME280;36154;51.674;7.824;2022-11-27T08:13:59;101444.31;;;20.16;50.64
48872;BME280;36154;51.674;7.824;2022-11-27T08:16:26;101447.75;;;20.16;50.44
48872;BME280;36154;51.674;7.824;2022-11-27T08:18:52;101452.06;;;20.17;50.47
48872;BME280;36154;51.674;7.824;2022-11-27T08:21:17;101459.00;;;20.15;50.75
48872;BME280;36154;51.674;7.824;2022-11-27T08:23:43;101461.59;;;20.13;50.51
48872;BME280;36154;51.674;7.824;2022-11-27T08:26:10;101453.84;;;20.13;50.36
48872;BME280;36154;51.674;7.824;2022-11-27T08:28:36;101451.28;;;20.12;50.29
48872;BME280;36154;51.674;7.824;2022-11-27T08:31:03;101443.50;;;20.12;50.45
48872;BME280;36154;51.674;7.824;2022-11-27T08:33:31;101442.63;;;20.11;50.42
48872;BME280;36154;51.674;7.824;2022-11-27T08:35:56;101434.97;;;20.07;50.40
48872;BME280;36154;51.674;7.824;2022-11-27T08:38:22;101434.91;;;20.10;50.42
48872;BME280;36154;51.674;7.824;2022-11-27T08:40:59;101424.63;;;20.07;50.51
48872;BME280;36154;51.674;7.824;2022-11-27T08:43:25;101428.88;;;20.08;50.48
48872;BME280;36154;51.674;7.824;2022-11-27T08:45:52;101415.09;;;20.07;50.34
48872;BME280;36154;51.674;7.824;2022-11-27T08:48:18;101415.16;;;20.04;50.42
48872;BME280;36154;51.674;7.824;2022-11-27T08:50:44;101405.72;;;20.02;50.29
48872;BME280;36154;51.674;7.824;2022-11-27T08:53:10;101403.13;;;20.03;50.33
48872;BME280;36154;51.674;7.824;2022-11-27T08:55:36;101392.75;;;20.03;50.26
48872;BME280;36154;51.674;7.824;2022-11-27T08:58:01;101395.38;;;20.02;50.27
48872;BME280;36154;51.674;7.824;2022-11-27T09:00:28;101397.97;;;20.02;50.12
48872;BME280;36154;51.674;7.824;2022-11-27T09:02:54;101391.94;;;20.00;50.36
48872;BME280;36154;51.674;7.824;2022-11-27T09:05:19;101385.13;;;19.92;50.48
48872;BME280;36154;51.674;7.824;2022-11-27T09:07:44;101395.41;;;19.99;50.40
48872;BME280;36154;51.674;7.824;2022-11-27T09:10:10;101405.75;;;19.99;50.35
48872;BME280;36154;51.674;7.824;2022-11-27T09:12:35;101397.16;;;19.97;50.30
48872;BME280;36154;51.674;7.824;2022-11-27T09:15:00;101398.00;;;19.97;50.06
48872;BME280;36154;51.674;7.824;2022-11-27T09:17:26;101393.72;;;19.96;49.98
48872;BME280;36154;51.674;7.824;2022-11-27T09:19:51;101388.56;;;19.94;50.37
48872;BME280;36154;51.674;7.824;2022-11-27T09:22:16;101389.44;;;19.95;50.42
48872;BME280;36154;51.674;7.824;2022-11-27T09:24:43;101388.56;;;19.94;50.31
48872;BME280;36154;51.674;7.824;2022-11-27T09:27:08;101379.97;;;19.92;50.48
48872;BME280;36154;51.674;7.824;2022-11-27T09:29:34;101371.38;;;19.90;50.31
48872;BME280;36154;51.674;7.824;2022-11-27T09:31:59;101371.38;;;19.90;50.19
48872;BME280;36154;51.674;7.824;2022-11-27T09:34:25;101369.63;;;19.92;50.28
48872;BME280;36154;51.674;7.824;2022-11-27T09:36:50;101374.84;;;19.89;50.30
48872;BME280;36154;51.674;7.824;2022-11-27T09:39:16;101364.50;;;19.89;50.38
48872;BME280;36154;51.674;7.824;2022-11-27T09:44:25;101357.63;;;19.88;50.36
48872;BME280;36154;51.674;7.824;2022-11-27T09:46:54;101357.66;;;19.85;50.39
48872;BME280;36154;51.674;7.824;2022-11-27T09:49:57;101345.59;;;19.84;50.40
48872;BME280;36154;51.674;7.824;2022-11-27T09:52:31;101347.31;;;19.85;50.33
48872;BME280;36154;51.674;7.824;2022-11-27T09:55:04;101351.66;;;19.85;50.50
48872;BME280;36154;51.674;7.824;2022-11-27T09:57:36;101361.06;;;19.87;50.47
48872;BME280;36154;51.674;7.824;2022-11-27T10:00:10;101367.94;;;19.90;50.66
48872;BME280;36154;51.674;7.824;2022-11-27T10:02:37;101383.44;;;19.91;50.67
48872;BME280;36154;51.674;7.824;2022-11-27T10:05:16;101373.88;;;19.98;50.95
48872;BME280;36154;51.674;7.824;2022-11-27T10:07:56;101384.16;;;20.01;50.89
48872;BME280;36154;51.674;7.824;2022-11-27T10:10:55;101376.34;;;20.04;51.02
48872;BME280;36154;51.674;7.824;2022-11-27T10:16:25;101360.81;;;20.06;51.16
48872;BME280;36154;51.674;7.824;2022-11-27T10:18:59;101359.03;;;20.08;51.08
48872;BME280;36154;51.674;7.824;2022-11-27T10:21:55;101353.78;;;20.14;51.18
48872;BME280;36154;51.674;7.824;2022-11-27T10:24:40;101358.91;;;20.17;51.22
48872;BME280;36154;51.674;7.824;2022-11-27T10:27:19;101354.56;;;20.19;50.99
48872;BME280;36154;51.674;7.824;2022-11-27T10:29:52;101361.47;;;20.20;51.16
48872;BME280;36154;51.674;7.824;2022-11-27T10:32:21;101353.69;;;20.22;51.10
48872;BME280;36154;51.674;7.824;2022-11-27T10:35:04;101345.00;;;20.24;51.14
48872;BME280;36154;51.674;7.824;2022-11-27T10:37:42;101339.78;;;20.26;51.06
48872;BME280;36154;51.674;7.824;2022-11-27T10:40:20;101337.22;;;20.26;51.09
48872;BME280;36154;51.674;7.824;2022-11-27T10:42:53;101338.00;;;20.29;51.13
48872;BME280;36154;51.674;7.824;2022-11-27T10:46:04;101346.59;;;20.31;51.13
48872;BME280;36154;51.674;7.824;2022-11-27T10:48:11;101337.97;;;20.33;51.17
48872;BME280;36154;51.674;7.824;2022-11-27T10:50:38;101339.66;;;20.35;51.23
48872;BME280;36154;51.674;7.824;2022-11-27T10:53:10;101324.16;;;20.34;51.22
48872;BME280;36154;51.674;7.824;2022-11-27T10:56:01;101319.78;;;20.37;51.14
48872;BME280;36154;51.674;7.824;2022-11-27T11:01:18;101312.03;;;20.36;50.99
48872;BME280;36154;51.674;7.824;2022-11-27T11:03:44;101318.94;;;20.37;51.10
48872;BME280;36154;51.674;7.824;2022-11-27T11:06:15;101324.09;;;20.37;50.83
48872;BME280;36154;51.674;7.824;2022-11-27T11:08:43;101306.84;;;20.36;50.83
48872;BME280;36154;51.674;7.824;2022-11-27T11:11:09;101306.00;;;20.37;50.95
48872;BME280;36154;51.674;7.824;2022-11-27T11:13:45;101296.53;;;20.34;50.77
48872;BME280;36154;51.674;7.824;2022-11-27T11:18:47;101295.66;;;20.35;50.72
48872;BME280;36154;51.674;7.824;2022-11-27T11:21:39;101293.09;;;20.34;50.81
48872;BME280;36154;51.674;7.824;2022-11-27T11:24:14;101287.13;;;20.30;50.52
48872;BME280;36154;51.674;7.824;2022-11-27T11:26:43;101286.22;;;20.31;50.72
48872;BME280;36154;51.674;7.824;2022-11-27T11:31:51;101282.88;;;20.26;50.52
48872;BME280;36154;51.674;7.824;2022-11-27T11:34:24;101276.84;;;20.25;50.53
48872;BME280;36154;51.674;7.824;2022-11-27T11:37:23;101270.78;;;20.26;50.60
48872;BME280;36154;51.674;7.824;2022-11-27T11:40:05;101272.50;;;20.26;50.75
48872;BME280;36154;51.674;7.824;2022-11-27T11:42:33;101263.13;;;20.22;50.74
48872;BME280;36154;51.674;7.824;2022-11-27T11:45:05;101267.38;;;20.24;50.72
48872;BME280;36154;51.674;7.824;2022-11-27T11:47:51;101258.78;;;20.22;50.59
48872;BME280;36154;51.674;7.824;2022-11-27T11:53:17;101255.38;;;20.20;50.88
48872;BME280;36154;51.674;7.824;2022-11-27T11:58:56;101243.31;;;20.19;50.88
48872;BME280;36154;51.674;7.824;2022-11-27T12:01:42;101234.69;;;20.19;50.90
48872;BME280;36154;51.674;7.824;2022-11-27T12:04:39;101231.25;;;20.18;50.65
48872;BME280;36154;51.674;7.824;2022-11-27T12:10:15;101218.38;;;20.15;50.80
48872;BME280;36154;51.674;7.824;2022-11-27T12:15:49;101203.75;;;20.12;50.98
48872;BME280;36154;51.674;7.824;2022-11-27T12:18:23;101193.44;;;20.11;50.94
48872;BME280;36154;51.674;7.824;2022-11-27T12:29:06;101174.56;;;20.06;51.10
48872;BME280;36154;51.674;7.824;2022-11-27T12:37:32;101161.69;;;20.03;50.80
48872;BME280;36154;51.674;7.824;2022-11-27T12:45:47;101152.22;;;20.02;50.67
48872;BME280;36154;51.674;7.824;2022-11-27T12:48:18;101141.88;;;20.02;50.64
48872;BME280;36154;51.674;7.824;2022-11-27T12:50:52;101126.41;;;19.99;50.81
48872;BME280;36154;51.674;7.824;2022-11-27T12:53:30;101128.97;;;20.00;50.90
48872;BME280;36154;51.674;7.824;2022-11-27T12:56:24;101133.28;;;20.00;50.85
48872;BME280;36154;51.674;7.824;2022-11-27T12:58:55;101126.41;;;19.99;51.01
48872;BME280;36154;51.674;7.824;2022-11-27T13:01:41;101121.25;;;19.99;51.12
48872;BME280;36154;51.674;7.824;2022-11-27T13:04:36;101119.53;;;19.98;51.32
48872;BME280;36154;51.674;7.824;2022-11-27T13:07:20;101115.22;;;19.98;51.62
48872;BME280;36154;51.674;7.824;2022-11-27T13:10:08;101109.19;;;19.98;51.76
48872;BME280;36154;51.674;7.824;2022-11-27T13:12:45;101098.84;;;19.98;52.07
48872;BME280;36154;51.674;7.824;2022-11-27T13:15:26;101107.50;;;19.97;52.36
48872;BME280;36154;51.674;7.824;2022-11-27T13:18:02;101104.00;;;19.98;52.45
48872;BME280;36154;51.674;7.824;2022-11-27T13:20:33;101105.72;;;19.99;52.46
48872;BME280;36154;51.674;7.824;2022-11-27T13:23:00;101101.41;;;19.98;52.54
48872;BME280;36154;51.674;7.824;2022-11-27T13:25:26;101097.16;;;19.97;52.50
48872;BME280;36154;51.674;7.824;2022-11-27T13:27:55;101086.72;;;20.00;52.72
48872;BME280;36154;51.674;7.824;2022-11-27T13:30:25;101080.72;;;19.98;52.90
48872;BME280;36154;51.674;7.824;2022-11-27T13:32:55;101085.03;;;19.99;52.71
48872;BME280;36154;51.674;7.824;2022-11-27T13:35:30;101073.78;;;20.00;52.90
48872;BME280;36154;51.674;7.824;2022-11-27T13:38:21;101063.50;;;19.98;52.84
48872;BME280;36154;51.674;7.824;2022-11-27T13:40:50;101064.34;;;19.99;52.96
48872;BME280;36154;51.674;7.824;2022-11-27T13:43:26;101047.06;;;19.99;52.95
48872;BME280;36154;51.674;7.824;2022-11-27T13:46:03;101035.91;;;19.97;52.80
48872;BME280;36154;51.674;7.824;2022-11-27T13:48:41;101014.38;;;19.97;52.77
48872;BME280;36154;51.674;7.824;2022-11-27T13:51:21;101003.13;;;19.98;52.87
48872;BME280;36154;51.674;7.824;2022-11-27T13:53:48;101000.56;;;19.98;52.62
48872;BME280;36154;51.674;7.824;2022-11-27T13:56:13;100985.09;;;19.94;52.55
48872;BME280;36154;51.674;7.824;2022-11-27T13:58:40;100990.25;;;19.94;52.44
48872;BME280;36154;51.674;7.824;2022-11-27T14:01:20;101008.34;;;19.96;52.55
48872;BME280;36154;51.674;7.824;2022-11-27T14:03:46;101010.09;;;19.96;52.58
48872;BME280;36154;51.674;7.824;2022-11-27T14:06:22;101011.84;;;19.95;52.54
48872;BME280;36154;51.674;7.824;2022-11-27T14:08:58;101011.84;;;19.95;52.71
48872;BME280;36154;51.674;7.824;2022-11-27T14:13:59;100997.16;;;19.96;52.74
48872;BME280;36154;51.674;7.824;2022-11-27T14:16:30;100994.53;;;19.97;52.78